sensor_id;sensor_type;location;lat;lon;timestamp;P1;durP1;ratioP1;P2;durP2;ratioP2
43345;SDS011;28937;51.160;4.146;2023-07-28T00:00:32;2.80;;;1.17;;
43345;SDS011;28937;51.160;4.146;2023-07-28T00:02:57;1.65;;;1.17;;
43345;SDS011;28937;51.160;4.146;2023-07-28T00:05:23;2.72;;;1.58;;
43345;SDS011;28937;51.160;4.146;2023-07-28T00:07:48;3.97;;;1.38;;
43345;SDS011;28937;51.160;4.146;2023-07-28T00:10:14;1.30;;;1.20;;
43345;SDS011;28937;51.160;4.146;2023-07-28T00:12:40;1.30;;;1.20;;
43345;SDS011;28937;51.160;4.146;2023-07-28T00:15:05;1.95;;;1.15;;
43345;SDS011;28937;51.160;4.146;2023-07-28T00:17:31;2.22;;;1.65;;
43345;SDS011;28937;51.160;4.146;2023-07-28T00:19:56;1.45;;;1.25;;
43345;SDS011;28937;51.160;4.146;2023-07-28T00:22:22;2.38;;;1.52;;
43345;SDS011;28937;51.160;4.146;2023-07-28T00:24:47;2.88;;;1.52;;
43345;SDS011;28937;51.160;4.146;2023-07-28T00:27:13;1.70;;;1.60;;
43345;SDS011;28937;51.160;4.146;2023-07-28T00:29:40;2.42;;;1.75;;
43345;SDS011;28937;51.160;4.146;2023-07-28T00:32:06;3.05;;;1.77;;
43345;SDS011;28937;51.160;4.146;2023-07-28T00:34:32;4.15;;;2.13;;
43345;SDS011;28937;51.160;4.146;2023-07-28T00:36:57;3.38;;;2.25;;
43345;SDS011;28937;51.160;4.146;2023-07-28T00:39:23;2.58;;;2.35;;
43345;SDS011;28937;51.160;4.146;2023-07-28T00:41:48;2.55;;;2.00;;
43345;SDS011;28937;51.160;4.146;2023-07-28T00:44:14;3.65;;;2.33;;
43345;SDS011;28937;51.160;4.146;2023-07-28T00:46:41;2.63;;;2.42;;
43345;SDS011;28937;51.160;4.146;2023-07-28T00:49:07;3.75;;;2.60;;
43345;SDS011;28937;51.160;4.146;2023-07-28T00:51:33;3.80;;;2.67;;
43345;SDS011;28937;51.160;4.146;2023-07-28T00:54:02;2.45;;;2.25;;
43345;SDS011;28937;51.160;4.146;2023-07-28T00:56:29;2.67;;;2.47;;
43345;SDS011;28937;51.160;4.146;2023-07-28T00:58:54;3.53;;;2.83;;
43345;SDS011;28937;51.160;4.146;2023-07-28T01:01:20;2.67;;;2.47;;
43345;SDS011;28937;51.160;4.146;2023-07-28T01:03:46;4.53;;;2.75;;
43345;SDS011;28937;51.160;4.146;2023-07-28T01:06:33;3.72;;;2.83;;
43345;SDS011;28937;51.160;4.146;2023-07-28T01:09:04;3.55;;;3.10;;
43345;SDS011;28937;51.160;4.146;2023-07-28T01:11:34;3.50;;;3.20;;
43345;SDS011;28937;51.160;4.146;2023-07-28T01:14:00;3.42;;;2.90;;
43345;SDS011;28937;51.160;4.146;2023-07-28T01:16:25;4.38;;;3.05;;
43345;SDS011;28937;51.160;4.146;2023-07-28T01:18:51;3.38;;;2.90;;
43345;SDS011;28937;51.160;4.146;2023-07-28T01:21:20;4.43;;;2.92;;
43345;SDS011;28937;51.160;4.146;2023-07-28T01:23:52;3.95;;;3.20;;
43345;SDS011;28937;51.160;4.146;2023-07-28T01:26:33;3.10;;;2.88;;
43345;SDS011;28937;51.160;4.146;2023-07-28T01:29:00;3.83;;;2.97;;
43345;SDS011;28937;51.160;4.146;2023-07-28T01:31:28;4.35;;;2.90;;
43345;SDS011;28937;51.160;4.146;2023-07-28T01:33:54;4.28;;;3.00;;
43345;SDS011;28937;51.160;4.146;2023-07-28T01:36:19;3.97;;;3.05;;
43345;SDS011;28937;51.160;4.146;2023-07-28T01:38:45;3.28;;;2.80;;
43345;SDS011;28937;51.160;4.146;2023-07-28T01:41:11;5.45;;;2.80;;
43345;SDS011;28937;51.160;4.146;2023-07-28T01:43:36;4.22;;;2.92;;
43345;SDS011;28937;51.160;4.146;2023-07-28T01:46:02;4.05;;;2.53;;
43345;SDS011;28937;51.160;4.146;2023-07-28T01:48:27;2.80;;;2.47;;
43345;SDS011;28937;51.160;4.146;2023-07-28T01:50:54;2.60;;;2.38;;
43345;SDS011;28937;51.160;4.146;2023-07-28T01:53:19;4.72;;;2.60;;
43345;SDS011;28937;51.160;4.146;2023-07-28T01:55:45;2.88;;;2.20;;
43345;SDS011;28937;51.160;4.146;2023-07-28T01:58:11;3.95;;;2.47;;
43345;SDS011;28937;51.160;4.146;2023-07-28T02:00:36;3.05;;;2.60;;
43345;SDS011;28937;51.160;4.146;2023-07-28T02:03:02;4.35;;;2.53;;
43345;SDS011;28937;51.160;4.146;2023-07-28T02:05:28;3.13;;;2.38;;
43345;SDS011;28937;51.160;4.146;2023-07-28T02:07:54;3.95;;;2.92;;
43345;SDS011;28937;51.160;4.146;2023-07-28T02:10:21;3.42;;;2.60;;
43345;SDS011;28937;51.160;4.146;2023-07-28T02:12:48;4.18;;;2.58;;
43345;SDS011;28937;51.160;4.146;2023-07-28T02:15:14;2.88;;;2.28;;
43345;SDS011;28937;51.160;4.146;2023-07-28T02:17:39;3.00;;;2.28;;
43345;SDS011;28937;51.160;4.146;2023-07-28T02:20:05;4.15;;;2.70;;
43345;SDS011;28937;51.160;4.146;2023-07-28T02:22:32;3.00;;;2.33;;
43345;SDS011;28937;51.160;4.146;2023-07-28T02:24:57;3.75;;;2.60;;
43345;SDS011;28937;51.160;4.146;2023-07-28T02:27:26;4.45;;;2.85;;
43345;SDS011;28937;51.160;4.146;2023-07-28T02:29:52;3.55;;;2.75;;
43345;SDS011;28937;51.160;4.146;2023-07-28T02:32:18;3.83;;;3.20;;
43345;SDS011;28937;51.160;4.146;2023-07-28T02:34:44;3.97;;;2.63;;
43345;SDS011;28937;51.160;4.146;2023-07-28T02:37:10;3.53;;;2.70;;
43345;SDS011;28937;51.160;4.146;2023-07-28T02:39:35;4.35;;;2.65;;
43345;SDS011;28937;51.160;4.146;2023-07-28T02:42:01;6.03;;;2.75;;
43345;SDS011;28937;51.160;4.146;2023-07-28T02:44:26;3.30;;;2.55;;
43345;SDS011;28937;51.160;4.146;2023-07-28T02:46:52;3.35;;;2.50;;
43345;SDS011;28937;51.160;4.146;2023-07-28T02:49:17;5.13;;;2.78;;
43345;SDS011;28937;51.160;4.146;2023-07-28T02:51:43;2.60;;;2.40;;
43345;SDS011;28937;51.160;4.146;2023-07-28T02:54:09;2.60;;;2.40;;
43345;SDS011;28937;51.160;4.146;2023-07-28T02:56:35;5.85;;;2.92;;
43345;SDS011;28937;51.160;4.146;2023-07-28T02:59:03;2.95;;;2.60;;
43345;SDS011;28937;51.160;4.146;2023-07-28T03:01:29;3.35;;;2.60;;
43345;SDS011;28937;51.160;4.146;2023-07-28T03:03:58;5.40;;;2.80;;
43345;SDS011;28937;51.160;4.146;2023-07-28T03:06:27;3.15;;;2.60;;
43345;SDS011;28937;51.160;4.146;2023-07-28T03:08:53;3.97;;;2.45;;
43345;SDS011;28937;51.160;4.146;2023-07-28T03:11:18;4.70;;;2.55;;
43345;SDS011;28937;51.160;4.146;2023-07-28T03:13:44;6.47;;;2.50;;
43345;SDS011;28937;51.160;4.146;2023-07-28T03:16:09;3.38;;;2.30;;
43345;SDS011;28937;51.160;4.146;2023-07-28T03:18:35;3.78;;;2.55;;
43345;SDS011;28937;51.160;4.146;2023-07-28T03:21:01;3.67;;;2.10;;
43345;SDS011;28937;51.160;4.146;2023-07-28T03:23:26;3.60;;;2.45;;
43345;SDS011;28937;51.160;4.146;2023-07-28T03:25:52;2.97;;;2.13;;
43345;SDS011;28937;51.160;4.146;2023-07-28T03:28:17;2.40;;;2.20;;
43345;SDS011;28937;51.160;4.146;2023-07-28T03:30:43;4.43;;;2.05;;
43345;SDS011;28937;51.160;4.146;2023-07-28T03:33:09;2.92;;;2.08;;
43345;SDS011;28937;51.160;4.146;2023-07-28T03:35:34;4.50;;;2.00;;
43345;SDS011;28937;51.160;4.146;2023-07-28T03:38:00;3.28;;;2.45;;
43345;SDS011;28937;51.160;4.146;2023-07-28T03:40:25;4.38;;;2.10;;
43345;SDS011;28937;51.160;4.146;2023-07-28T03:42:51;3.97;;;1.90;;
43345;SDS011;28937;51.160;4.146;2023-07-28T03:45:18;2.70;;;1.92;;
43345;SDS011;28937;51.160;4.146;2023-07-28T03:47:43;3.00;;;2.05;;
43345;SDS011;28937;51.160;4.146;2023-07-28T03:50:09;2.50;;;2.17;;
43345;SDS011;28937;51.160;4.146;2023-07-28T03:52:35;1.90;;;1.70;;
43345;SDS011;28937;51.160;4.146;2023-07-28T03:55:00;4.57;;;1.50;;
43345;SDS011;28937;51.160;4.146;2023-07-28T03:57:26;2.40;;;1.83;;
43345;SDS011;28937;51.160;4.146;2023-07-28T03:59:52;2.10;;;1.48;;
43345;SDS011;28937;51.160;4.146;2023-07-28T04:02:17;3.20;;;1.80;;
43345;SDS011;28937;51.160;4.146;2023-07-28T04:04:43;1.92;;;1.50;;
43345;SDS011;28937;51.160;4.146;2023-07-28T04:07:09;2.95;;;1.63;;
43345;SDS011;28937;51.160;4.146;2023-07-28T04:09:34;3.22;;;1.70;;
43345;SDS011;28937;51.160;4.146;2023-07-28T04:12:00;3.28;;;1.70;;
43345;SDS011;28937;51.160;4.146;2023-07-28T04:14:25;2.08;;;1.50;;
43345;SDS011;28937;51.160;4.146;2023-07-28T04:16:51;2.60;;;1.73;;
43345;SDS011;28937;51.160;4.146;2023-07-28T04:19:16;3.10;;;1.10;;
43345;SDS011;28937;51.160;4.146;2023-07-28T04:21:42;2.53;;;1.50;;
43345;SDS011;28937;51.160;4.146;2023-07-28T04:24:08;3.08;;;1.33;;
43345;SDS011;28937;51.160;4.146;2023-07-28T04:26:34;1.10;;;1.00;;
43345;SDS011;28937;51.160;4.146;2023-07-28T04:28:59;3.38;;;1.23;;
43345;SDS011;28937;51.160;4.146;2023-07-28T04:31:25;1.40;;;1.25;;
43345;SDS011;28937;51.160;4.146;2023-07-28T04:33:51;4.00;;;1.42;;
43345;SDS011;28937;51.160;4.146;2023-07-28T04:36:16;3.63;;;1.20;;
43345;SDS011;28937;51.160;4.146;2023-07-28T04:38:42;2.33;;;1.38;;
43345;SDS011;28937;51.160;4.146;2023-07-28T04:41:08;2.28;;;1.42;;
43345;SDS011;28937;51.160;4.146;2023-07-28T04:43:33;1.23;;;1.13;;
43345;SDS011;28937;51.160;4.146;2023-07-28T04:45:59;2.35;;;1.15;;
43345;SDS011;28937;51.160;4.146;2023-07-28T04:48:24;1.48;;;1.27;;
43345;SDS011;28937;51.160;4.146;2023-07-28T04:50:50;1.15;;;1.05;;
43345;SDS011;28937;51.160;4.146;2023-07-28T04:53:15;2.15;;;1.23;;
43345;SDS011;28937;51.160;4.146;2023-07-28T04:55:41;1.50;;;1.30;;
43345;SDS011;28937;51.160;4.146;2023-07-28T04:58:06;2.60;;;1.40;;
43345;SDS011;28937;51.160;4.146;2023-07-28T05:00:32;2.70;;;1.02;;
43345;SDS011;28937;51.160;4.146;2023-07-28T05:02:57;1.27;;;0.85;;
43345;SDS011;28937;51.160;4.146;2023-07-28T05:05:23;1.40;;;0.98;;
43345;SDS011;28937;51.160;4.146;2023-07-28T05:07:48;1.38;;;1.00;;
43345;SDS011;28937;51.160;4.146;2023-07-28T05:10:14;1.20;;;1.10;;
43345;SDS011;28937;51.160;4.146;2023-07-28T05:12:39;3.88;;;1.65;;
43345;SDS011;28937;51.160;4.146;2023-07-28T05:15:05;2.10;;;1.23;;
43345;SDS011;28937;51.160;4.146;2023-07-28T05:17:35;1.20;;;1.10;;
43345;SDS011;28937;51.160;4.146;2023-07-28T05:20:02;1.02;;;0.93;;
43345;SDS011;28937;51.160;4.146;2023-07-28T05:22:28;2.45;;;1.20;;
43345;SDS011;28937;51.160;4.146;2023-07-28T05:24:54;2.50;;;1.10;;
43345;SDS011;28937;51.160;4.146;2023-07-28T05:27:19;1.27;;;1.10;;
43345;SDS011;28937;51.160;4.146;2023-07-28T05:29:45;1.33;;;1.23;;
43345;SDS011;28937;51.160;4.146;2023-07-28T05:32:10;1.75;;;1.40;;
43345;SDS011;28937;51.160;4.146;2023-07-28T05:34:36;2.70;;;1.92;;
43345;SDS011;28937;51.160;4.146;2023-07-28T05:37:01;2.50;;;1.33;;
43345;SDS011;28937;51.160;4.146;2023-07-28T05:39:27;1.92;;;1.45;;
43345;SDS011;28937;51.160;4.146;2023-07-28T05:41:53;2.75;;;1.33;;
43345;SDS011;28937;51.160;4.146;2023-07-28T05:44:19;2.90;;;1.52;;
43345;SDS011;28937;51.160;4.146;2023-07-28T05:46:44;3.50;;;1.90;;
43345;SDS011;28937;51.160;4.146;2023-07-28T05:49:10;2.00;;;1.52;;
43345;SDS011;28937;51.160;4.146;2023-07-28T05:51:36;2.35;;;1.58;;
43345;SDS011;28937;51.160;4.146;2023-07-28T05:54:01;1.80;;;1.70;;
43345;SDS011;28937;51.160;4.146;2023-07-28T05:56:27;4.00;;;1.90;;
43345;SDS011;28937;51.160;4.146;2023-07-28T05:58:53;3.95;;;1.73;;
43345;SDS011;28937;51.160;4.146;2023-07-28T06:01:18;4.35;;;1.83;;
43345;SDS011;28937;51.160;4.146;2023-07-28T06:03:44;2.58;;;1.80;;
43345;SDS011;28937;51.160;4.146;2023-07-28T06:06:10;4.00;;;1.67;;
43345;SDS011;28937;51.160;4.146;2023-07-28T06:08:35;1.98;;;1.17;;
43345;SDS011;28937;51.160;4.146;2023-07-28T06:11:05;2.25;;;1.40;;
43345;SDS011;28937;51.160;4.146;2023-07-28T06:13:31;2.03;;;1.20;;
43345;SDS011;28937;51.160;4.146;2023-07-28T06:15:57;4.40;;;1.55;;
43345;SDS011;28937;51.160;4.146;2023-07-28T06:18:23;1.98;;;1.05;;
43345;SDS011;28937;51.160;4.146;2023-07-28T06:20:49;2.90;;;1.02;;
43345;SDS011;28937;51.160;4.146;2023-07-28T06:23:15;5.13;;;1.08;;
43345;SDS011;28937;51.160;4.146;2023-07-28T06:25:40;1.13;;;1.00;;
43345;SDS011;28937;51.160;4.146;2023-07-28T06:28:12;4.00;;;1.27;;
43345;SDS011;28937;51.160;4.146;2023-07-28T06:30:38;3.58;;;1.10;;
43345;SDS011;28937;51.160;4.146;2023-07-28T06:33:07;2.30;;;1.20;;
43345;SDS011;28937;51.160;4.146;2023-07-28T06:35:33;2.97;;;1.70;;
43345;SDS011;28937;51.160;4.146;2023-07-28T06:37:59;2.60;;;1.60;;
43345;SDS011;28937;51.160;4.146;2023-07-28T06:40:25;2.28;;;1.60;;
43345;SDS011;28937;51.160;4.146;2023-07-28T06:42:50;2.67;;;1.88;;
43345;SDS011;28937;51.160;4.146;2023-07-28T06:45:16;1.80;;;1.63;;
43345;SDS011;28937;51.160;4.146;2023-07-28T06:47:42;1.42;;;1.33;;
43345;SDS011;28937;51.160;4.146;2023-07-28T06:50:08;2.20;;;1.58;;
43345;SDS011;28937;51.160;4.146;2023-07-28T06:52:34;2.80;;;1.58;;
43345;SDS011;28937;51.160;4.146;2023-07-28T06:54:59;1.88;;;1.40;;
43345;SDS011;28937;51.160;4.146;2023-07-28T06:57:25;2.35;;;1.63;;
43345;SDS011;28937;51.160;4.146;2023-07-28T06:59:50;1.63;;;1.17;;
43345;SDS011;28937;51.160;4.146;2023-07-28T07:02:16;2.53;;;1.30;;
43345;SDS011;28937;51.160;4.146;2023-07-28T07:04:42;2.70;;;1.00;;
43345;SDS011;28937;51.160;4.146;2023-07-28T07:07:07;1.00;;;0.90;;
43345;SDS011;28937;51.160;4.146;2023-07-28T07:09:33;2.60;;;1.17;;
43345;SDS011;28937;51.160;4.146;2023-07-28T07:11:59;1.30;;;0.82;;
43345;SDS011;28937;51.160;4.146;2023-07-28T07:14:25;2.30;;;1.00;;
43345;SDS011;28937;51.160;4.146;2023-07-28T07:16:50;2.50;;;0.70;;
43345;SDS011;28937;51.160;4.146;2023-07-28T07:19:16;2.05;;;0.80;;
43345;SDS011;28937;51.160;4.146;2023-07-28T07:21:42;2.47;;;0.98;;
43345;SDS011;28937;51.160;4.146;2023-07-28T07:24:09;1.42;;;0.80;;
43345;SDS011;28937;51.160;4.146;2023-07-28T07:26:35;2.38;;;1.30;;
43345;SDS011;28937;51.160;4.146;2023-07-28T07:29:00;2.08;;;0.90;;
43345;SDS011;28937;51.160;4.146;2023-07-28T07:31:26;0.98;;;0.77;;
43345;SDS011;28937;51.160;4.146;2023-07-28T07:33:52;1.63;;;0.95;;
43345;SDS011;28937;51.160;4.146;2023-07-28T07:36:18;1.58;;;1.20;;
43345;SDS011;28937;51.160;4.146;2023-07-28T07:38:44;1.10;;;0.98;;
43345;SDS011;28937;51.160;4.146;2023-07-28T07:41:16;1.45;;;0.88;;
43345;SDS011;28937;51.160;4.146;2023-07-28T07:43:45;1.85;;;1.00;;
43345;SDS011;28937;51.160;4.146;2023-07-28T07:46:11;2.10;;;1.10;;
43345;SDS011;28937;51.160;4.146;2023-07-28T07:48:38;1.98;;;1.08;;
43345;SDS011;28937;51.160;4.146;2023-07-28T07:51:03;1.90;;;0.90;;
43345;SDS011;28937;51.160;4.146;2023-07-28T07:53:29;1.70;;;0.90;;
43345;SDS011;28937;51.160;4.146;2023-07-28T07:55:54;1.60;;;0.90;;
43345;SDS011;28937;51.160;4.146;2023-07-28T07:58:20;2.88;;;1.13;;
43345;SDS011;28937;51.160;4.146;2023-07-28T08:00:45;1.85;;;1.00;;
43345;SDS011;28937;51.160;4.146;2023-07-28T08:03:11;1.00;;;0.90;;
43345;SDS011;28937;51.160;4.146;2023-07-28T08:05:37;2.20;;;0.77;;
43345;SDS011;28937;51.160;4.146;2023-07-28T08:08:02;1.42;;;1.10;;
43345;SDS011;28937;51.160;4.146;2023-07-28T08:10:30;1.05;;;0.90;;
43345;SDS011;28937;51.160;4.146;2023-07-28T08:12:55;1.50;;;0.95;;
43345;SDS011;28937;51.160;4.146;2023-07-28T08:15:21;3.83;;;1.75;;
43345;SDS011;28937;51.160;4.146;2023-07-28T08:17:46;1.23;;;0.82;;
43345;SDS011;28937;51.160;4.146;2023-07-28T08:20:12;1.25;;;0.82;;
43345;SDS011;28937;51.160;4.146;2023-07-28T08:22:38;3.38;;;1.20;;
43345;SDS011;28937;51.160;4.146;2023-07-28T08:25:04;1.13;;;0.70;;
43345;SDS011;28937;51.160;4.146;2023-07-28T08:27:30;3.13;;;0.85;;
43345;SDS011;28937;51.160;4.146;2023-07-28T08:29:55;3.20;;;1.27;;
43345;SDS011;28937;51.160;4.146;2023-07-28T08:32:21;1.30;;;0.80;;
43345;SDS011;28937;51.160;4.146;2023-07-28T08:34:47;1.85;;;0.98;;
43345;SDS011;28937;51.160;4.146;2023-07-28T08:37:13;1.33;;;0.70;;
43345;SDS011;28937;51.160;4.146;2023-07-28T08:39:38;2.45;;;1.15;;
43345;SDS011;28937;51.160;4.146;2023-07-28T08:42:04;2.45;;;0.80;;
43345;SDS011;28937;51.160;4.146;2023-07-28T08:44:30;3.90;;;0.60;;
43345;SDS011;28937;51.160;4.146;2023-07-28T08:46:57;1.92;;;0.55;;
43345;SDS011;28937;51.160;4.146;2023-07-28T08:49:24;1.25;;;0.90;;
43345;SDS011;28937;51.160;4.146;2023-07-28T08:51:50;1.02;;;0.80;;
43345;SDS011;28937;51.160;4.146;2023-07-28T08:54:16;1.98;;;1.13;;
43345;SDS011;28937;51.160;4.146;2023-07-28T08:56:45;1.27;;;0.82;;
43345;SDS011;28937;51.160;4.146;2023-07-28T08:59:10;2.33;;;1.75;;
43345;SDS011;28937;51.160;4.146;2023-07-28T09:01:39;2.25;;;1.73;;
43345;SDS011;28937;51.160;4.146;2023-07-28T09:04:11;2.95;;;1.90;;
43345;SDS011;28937;51.160;4.146;2023-07-28T09:06:37;3.92;;;2.78;;
43345;SDS011;28937;51.160;4.146;2023-07-28T09:09:06;2.60;;;2.40;;
43345;SDS011;28937;51.160;4.146;2023-07-28T09:11:32;9.05;;;3.08;;
43345;SDS011;28937;51.160;4.146;2023-07-28T09:13:59;6.43;;;3.15;;
43345;SDS011;28937;51.160;4.146;2023-07-28T09:16:25;24.63;;;17.02;;
43345;SDS011;28937;51.160;4.146;2023-07-28T09:19:03;34.35;;;27.52;;
43345;SDS011;28937;51.160;4.146;2023-07-28T09:21:33;54.13;;;43.92;;
43345;SDS011;28937;51.160;4.146;2023-07-28T09:24:00;44.50;;;38.47;;
43345;SDS011;28937;51.160;4.146;2023-07-28T09:26:41;35.60;;;29.90;;
43345;SDS011;28937;51.160;4.146;2023-07-28T09:29:14;38.58;;;30.73;;
43345;SDS011;28937;51.160;4.146;2023-07-28T09:31:45;31.48;;;24.90;;
43345;SDS011;28937;51.160;4.146;2023-07-28T09:34:12;25.75;;;22.55;;
43345;SDS011;28937;51.160;4.146;2023-07-28T09:36:48;30.50;;;26.40;;
43345;SDS011;28937;51.160;4.146;2023-07-28T09:39:14;32.92;;;29.30;;
43345;SDS011;28937;51.160;4.146;2023-07-28T09:41:41;30.67;;;25.08;;
43345;SDS011;28937;51.160;4.146;2023-07-28T09:44:10;29.52;;;25.10;;
43345;SDS011;28937;51.160;4.146;2023-07-28T09:46:36;26.80;;;22.73;;
43345;SDS011;28937;51.160;4.146;2023-07-28T09:49:27;20.52;;;18.33;;
43345;SDS011;28937;51.160;4.146;2023-07-28T09:51:59;26.75;;;23.92;;
43345;SDS011;28937;51.160;4.146;2023-07-28T09:54:30;27.05;;;20.02;;
43345;SDS011;28937;51.160;4.146;2023-07-28T09:56:59;16.58;;;13.10;;
43345;SDS011;28937;51.160;4.146;2023-07-28T09:59:28;19.02;;;14.23;;
43345;SDS011;28937;51.160;4.146;2023-07-28T10:02:00;19.80;;;15.07;;
43345;SDS011;28937;51.160;4.146;2023-07-28T10:04:26;20.10;;;15.38;;
43345;SDS011;28937;51.160;4.146;2023-07-28T10:06:52;13.65;;;9.48;;
43345;SDS011;28937;51.160;4.146;2023-07-28T10:09:30;11.27;;;8.10;;
43345;SDS011;28937;51.160;4.146;2023-07-28T10:11:58;10.70;;;7.82;;
43345;SDS011;28937;51.160;4.146;2023-07-28T10:14:27;8.15;;;6.22;;
43345;SDS011;28937;51.160;4.146;2023-07-28T10:16:55;6.95;;;5.57;;
43345;SDS011;28937;51.160;4.146;2023-07-28T10:19:24;5.70;;;3.95;;
43345;SDS011;28937;51.160;4.146;2023-07-28T10:21:58;6.35;;;4.30;;
43345;SDS011;28937;51.160;4.146;2023-07-28T10:24:49;7.47;;;4.80;;
43345;SDS011;28937;51.160;4.146;2023-07-28T10:27:44;6.97;;;4.53;;
43345;SDS011;28937;51.160;4.146;2023-07-28T10:30:12;6.95;;;4.72;;
43345;SDS011;28937;51.160;4.146;2023-07-28T10:32:39;7.43;;;4.68;;
43345;SDS011;28937;51.160;4.146;2023-07-28T10:35:09;5.78;;;4.10;;
43345;SDS011;28937;51.160;4.146;2023-07-28T10:37:55;7.07;;;4.75;;
43345;SDS011;28937;51.160;4.146;2023-07-28T10:45:19;4.40;;;3.22;;
43345;SDS011;28937;51.160;4.146;2023-07-28T10:47:47;4.38;;;3.60;;
43345;SDS011;28937;51.160;4.146;2023-07-28T10:50:13;4.93;;;3.05;;
43345;SDS011;28937;51.160;4.146;2023-07-28T10:52:40;4.53;;;2.83;;
43345;SDS011;28937;51.160;4.146;2023-07-28T10:57:42;4.97;;;2.53;;
43345;SDS011;28937;51.160;4.146;2023-07-28T11:00:09;4.82;;;2.45;;
43345;SDS011;28937;51.160;4.146;2023-07-28T11:02:43;4.68;;;2.83;;
43345;SDS011;28937;51.160;4.146;2023-07-28T11:05:20;3.63;;;2.22;;
43345;SDS011;28937;51.160;4.146;2023-07-28T11:08:00;3.40;;;2.25;;
43345;SDS011;28937;51.160;4.146;2023-07-28T11:10:30;2.25;;;1.50;;
43345;SDS011;28937;51.160;4.146;2023-07-28T11:12:57;4.60;;;2.25;;
43345;SDS011;28937;51.160;4.146;2023-07-28T11:15:25;3.30;;;2.45;;
43345;SDS011;28937;51.160;4.146;2023-07-28T11:17:51;3.63;;;2.17;;
43345;SDS011;28937;51.160;4.146;2023-07-28T11:20:21;3.38;;;1.60;;
43345;SDS011;28937;51.160;4.146;2023-07-28T11:25:19;2.17;;;1.48;;
43345;SDS011;28937;51.160;4.146;2023-07-28T11:27:46;4.65;;;1.70;;
43345;SDS011;28937;51.160;4.146;2023-07-28T11:30:12;3.17;;;1.42;;
43345;SDS011;28937;51.160;4.146;2023-07-28T11:32:38;3.05;;;2.05;;
43345;SDS011;28937;51.160;4.146;2023-07-28T11:37:30;2.05;;;1.50;;
43345;SDS011;28937;51.160;4.146;2023-07-28T11:39:58;3.17;;;1.85;;
43345;SDS011;28937;51.160;4.146;2023-07-28T11:42:26;3.05;;;1.27;;
43345;SDS011;28937;51.160;4.146;2023-07-28T11:44:53;1.85;;;1.30;;
43345;SDS011;28937;51.160;4.146;2023-07-28T11:47:19;3.45;;;1.27;;
43345;SDS011;28937;51.160;4.146;2023-07-28T11:49:48;4.35;;;1.30;;
43345;SDS011;28937;51.160;4.146;2023-07-28T11:52:15;4.43;;;1.30;;
43345;SDS011;28937;51.160;4.146;2023-07-28T11:54:41;2.65;;;1.40;;
43345;SDS011;28937;51.160;4.146;2023-07-28T11:57:08;3.03;;;1.30;;
43345;SDS011;28937;51.160;4.146;2023-07-28T11:59:34;2.13;;;1.20;;
43345;SDS011;28937;51.160;4.146;2023-07-28T12:02:01;2.28;;;0.93;;
43345;SDS011;28937;51.160;4.146;2023-07-28T12:04:30;1.02;;;0.50;;
43345;SDS011;28937;51.160;4.146;2023-07-28T12:09:54;2.95;;;0.60;;
43345;SDS011;28937;51.160;4.146;2023-07-28T12:12:31;1.05;;;0.60;;
43345;SDS011;28937;51.160;4.146;2023-07-28T12:15:17;3.10;;;0.60;;
43345;SDS011;28937;51.160;4.146;2023-07-28T12:18:00;2.20;;;0.57;;
43345;SDS011;28937;51.160;4.146;2023-07-28T12:20:44;1.33;;;0.60;;
43345;SDS011;28937;51.160;4.146;2023-07-28T12:23:15;1.55;;;0.80;;
43345;SDS011;28937;51.160;4.146;2023-07-28T12:25:42;2.55;;;0.70;;
43345;SDS011;28937;51.160;4.146;2023-07-28T12:28:09;1.52;;;0.63;;
43345;SDS011;28937;51.160;4.146;2023-07-28T12:30:35;1.17;;;0.70;;
43345;SDS011;28937;51.160;4.146;2023-07-28T12:33:02;2.22;;;0.75;;
43345;SDS011;28937;51.160;4.146;2023-07-28T12:35:29;2.45;;;0.63;;
43345;SDS011;28937;51.160;4.146;2023-07-28T12:38:00;3.70;;;1.10;;
43345;SDS011;28937;51.160;4.146;2023-07-28T12:40:28;1.55;;;0.60;;
43345;SDS011;28937;51.160;4.146;2023-07-28T12:42:55;1.83;;;1.10;;
43345;SDS011;28937;51.160;4.146;2023-07-28T12:45:21;1.50;;;0.52;;
43345;SDS011;28937;51.160;4.146;2023-07-28T12:47:47;1.77;;;0.80;;
43345;SDS011;28937;51.160;4.146;2023-07-28T12:50:13;1.42;;;0.52;;
43345;SDS011;28937;51.160;4.146;2023-07-28T12:52:38;1.73;;;0.85;;
43345;SDS011;28937;51.160;4.146;2023-07-28T12:55:04;2.78;;;1.08;;
43345;SDS011;28937;51.160;4.146;2023-07-28T12:57:31;2.95;;;0.90;;
43345;SDS011;28937;51.160;4.146;2023-07-28T12:59:57;3.63;;;1.25;;
43345;SDS011;28937;51.160;4.146;2023-07-28T13:02:23;3.65;;;1.10;;
43345;SDS011;28937;51.160;4.146;2023-07-28T13:04:48;3.60;;;1.17;;
43345;SDS011;28937;51.160;4.146;2023-07-28T13:07:14;1.13;;;0.75;;
43345;SDS011;28937;51.160;4.146;2023-07-28T13:09:39;2.03;;;0.70;;
43345;SDS011;28937;51.160;4.146;2023-07-28T13:12:06;1.65;;;0.45;;
43345;SDS011;28937;51.160;4.146;2023-07-28T13:14:33;1.58;;;0.70;;
43345;SDS011;28937;51.160;4.146;2023-07-28T13:16:59;2.22;;;0.65;;
43345;SDS011;28937;51.160;4.146;2023-07-28T13:19:24;2.17;;;0.63;;
43345;SDS011;28937;51.160;4.146;2023-07-28T13:21:50;0.98;;;0.65;;
43345;SDS011;28937;51.160;4.146;2023-07-28T13:24:16;1.48;;;0.50;;
43345;SDS011;28937;51.160;4.146;2023-07-28T13:26:42;1.25;;;0.70;;
43345;SDS011;28937;51.160;4.146;2023-07-28T13:29:07;3.22;;;1.13;;
43345;SDS011;28937;51.160;4.146;2023-07-28T13:31:33;2.25;;;0.82;;
43345;SDS011;28937;51.160;4.146;2023-07-28T13:33:59;2.25;;;0.90;;
43345;SDS011;28937;51.160;4.146;2023-07-28T13:36:24;1.40;;;0.88;;
43345;SDS011;28937;51.160;4.146;2023-07-28T13:38:50;3.08;;;1.00;;
43345;SDS011;28937;51.160;4.146;2023-07-28T13:41:15;2.00;;;0.73;;
43345;SDS011;28937;51.160;4.146;2023-07-28T13:43:41;1.30;;;0.82;;
43345;SDS011;28937;51.160;4.146;2023-07-28T13:46:07;1.10;;;0.55;;
43345;SDS011;28937;51.160;4.146;2023-07-28T13:48:33;1.80;;;0.52;;
43345;SDS011;28937;51.160;4.146;2023-07-28T13:51:01;3.05;;;0.80;;
43345;SDS011;28937;51.160;4.146;2023-07-28T13:53:27;1.80;;;0.85;;
43345;SDS011;28937;51.160;4.146;2023-07-28T13:55:53;2.67;;;0.70;;
43345;SDS011;28937;51.160;4.146;2023-07-28T13:58:19;4.18;;;0.90;;
43345;SDS011;28937;51.160;4.146;2023-07-28T14:00:44;2.30;;;0.80;;
43345;SDS011;28937;51.160;4.146;2023-07-28T14:03:10;2.63;;;0.77;;
43345;SDS011;28937;51.160;4.146;2023-07-28T14:05:36;1.80;;;0.60;;
43345;SDS011;28937;51.160;4.146;2023-07-28T14:08:01;1.20;;;0.50;;
43345;SDS011;28937;51.160;4.146;2023-07-28T14:10:27;2.03;;;0.70;;
43345;SDS011;28937;51.160;4.146;2023-07-28T14:12:52;2.45;;;0.70;;
43345;SDS011;28937;51.160;4.146;2023-07-28T14:15:18;3.75;;;0.88;;
43345;SDS011;28937;51.160;4.146;2023-07-28T14:17:44;4.20;;;0.80;;
43345;SDS011;28937;51.160;4.146;2023-07-28T14:20:09;3.10;;;1.05;;
43345;SDS011;28937;51.160;4.146;2023-07-28T14:22:35;2.03;;;0.95;;
43345;SDS011;28937;51.160;4.146;2023-07-28T14:25:01;0.82;;;0.50;;
43345;SDS011;28937;51.160;4.146;2023-07-28T14:27:28;3.33;;;0.80;;
43345;SDS011;28937;51.160;4.146;2023-07-28T14:29:53;3.53;;;0.77;;
43345;SDS011;28937;51.160;4.146;2023-07-28T14:32:19;2.45;;;1.00;;
43345;SDS011;28937;51.160;4.146;2023-07-28T14:34:44;2.42;;;0.65;;
43345;SDS011;28937;51.160;4.146;2023-07-28T14:37:10;2.50;;;0.88;;
43345;SDS011;28937;51.160;4.146;2023-07-28T14:39:36;3.17;;;1.17;;
43345;SDS011;28937;51.160;4.146;2023-07-28T14:42:02;1.95;;;0.60;;
43345;SDS011;28937;51.160;4.146;2023-07-28T14:44:28;3.75;;;1.08;;
43345;SDS011;28937;51.160;4.146;2023-07-28T14:46:54;1.55;;;0.80;;
43345;SDS011;28937;51.160;4.146;2023-07-28T14:49:20;3.38;;;0.85;;
43345;SDS011;28937;51.160;4.146;2023-07-28T14:51:46;1.35;;;0.68;;
43345;SDS011;28937;51.160;4.146;2023-07-28T14:54:11;1.83;;;0.90;;
43345;SDS011;28937;51.160;4.146;2023-07-28T14:56:37;3.92;;;1.13;;
43345;SDS011;28937;51.160;4.146;2023-07-28T14:59:02;3.00;;;0.82;;